Time;durP1;ratioP1;P1;durP2;ratioP2;P2;SDS_P1;SDS_P2;PMS_P1;PMS_P2;Temp;Humidity;BMP_temperature;BMP_pressure;BME280_temperature;BME280_humidity;BME280_pressure;Samples;Min_cycle;Max_cycle;Signal;HPM_P1;HPM_P2
2023/12/20 00:01:04;;;;;;;0.45;0.45;;;;;;;6.70;49.79;101455.03;4805615;29;20425;-93
2023/12/20 00:03:30;;;;;;;0.80;0.80;;;;;;;6.76;49.67;101460.75;4804313;29;20457;-95
2023/12/20 00:05:56;;;;;;;2.83;1.90;;;;;;;6.57;49.94;101454.38;4794800;30;20450;-96
2023/12/20 00:08:21;;;;;;;0.85;0.85;;;;;;;6.54;50.29;101454.63;4788126;30;20410;-94
2023/12/20 00:10:47;;;;;;;0.90;0.90;;;;;;;6.56;50.29;101447.41;4786097;29;20422;-88
2023/12/20 00:13:13;;;;;;;0.40;0.40;;;;;;;6.55;50.24;101448.38;4786521;29;20768;-92
2023/12/20 00:15:38;;;;;;;2.50;2.00;;;;;;;6.47;50.58;101448.19;4785993;30;20816;-91
2023/12/20 00:18:05;;;;;;;1.08;1.08;;;;;;;6.49;50.35;101446.25;4789953;30;20422;-94
2023/12/20 00:20:30;;;;;;;1.00;0.90;;;;;;;6.44;50.49;101443.97;4789023;29;20439;-92
2023/12/20 00:23:00;;;;;;;0.40;0.40;;;;;;;6.52;50.24;101438.09;4805881;29;20426;-94
2023/12/20 00:25:29;;;;;;;0.85;0.85;;;;;;;6.50;50.26;101432.97;4800118;29;20477;-94
2023/12/20 00:27:55;;;;;;;1.05;1.05;;;;;;;6.57;50.39;101438.56;4786758;30;20444;-93
2023/12/20 00:30:20;;;;;;;0.60;0.60;;;;;;;6.54;50.81;101433.53;4769536;30;20414;-93
2023/12/20 00:32:46;;;;;;;1.50;1.40;;;;;;;6.51;50.41;101436.41;4783658;30;20434;-91
2023/12/20 00:35:16;;;;;;;0.40;0.40;;;;;;;6.48;50.30;101423.50;4770443;30;20437;-95
2023/12/20 00:37:44;;;;;;;3.15;1.20;;;;;;;6.49;50.27;101428.63;4786223;29;20410;-95
2023/12/20 00:40:17;;;;;;;0.65;0.32;;;;;;;6.39;50.54;101411.09;4787720;29;20438;-95
2023/12/20 00:42:51;;;;;;;1.13;1.02;;;;;;;6.38;50.56;101422.59;4783789;30;20442;-95
2023/12/20 00:45:17;;;;;;;0.75;0.57;;;;;;;6.21;50.80;101431.84;4798346;30;20433;-96
2023/12/20 00:47:45;;;;;;;1.40;0.70;;;;;;;6.19;50.85;101418.81;4787924;30;20780;-93
2023/12/20 00:50:11;;;;;;;2.05;0.73;;;;;;;6.21;50.92;101423.94;4793075;30;20838;-94
2023/12/20 00:52:37;;;;;;;0.80;0.65;;;;;;;6.14;50.71;101413.09;4775149;30;20918;-90
2023/12/20 00:55:03;;;;;;;0.43;0.43;;;;;;;6.09;50.88;101423.16;4783827;30;20522;-91
2023/12/20 00:57:29;;;;;;;0.70;0.60;;;;;;;6.01;51.02;101415.84;4783756;30;20874;-94
2023/12/20 00:59:55;;;;;;;1.52;0.57;;;;;;;5.85;51.03;101410.97;4784118;30;20501;-94
2023/12/20 01:02:20;;;;;;;0.95;0.73;;;;;;;5.75;51.29;101412.66;4783722;30;20410;-93
2023/12/20 01:04:48;;;;;;;1.57;0.97;;;;;;;5.75;51.33;101410.00;4791586;24;20462;-93
2023/12/20 01:07:14;;;;;;;1.08;0.60;;;;;;;5.72;51.56;101403.19;4783222;30;20511;-93
2023/12/20 01:09:40;;;;;;;0.77;0.50;;;;;;;5.70;51.79;101399.84;4766803;30;21212;-91
2023/12/20 01:12:06;;;;;;;0.68;0.68;;;;;;;5.61;51.45;101397.13;4753138;30;20525;-91
2023/12/20 01:14:31;;;;;;;0.70;0.47;;;;;;;5.35;52.31;101378.97;4767701;30;20406;-93
2023/12/20 01:16:57;;;;;;;1.60;1.17;;;;;;;5.19;52.87;101384.56;4768601;30;20491;-93
2023/12/20 01:19:23;;;;;;;0.80;0.53;;;;;;;4.99;53.14;101391.34;4769187;30;20482;-93
2023/12/20 01:21:49;;;;;;;0.40;0.40;;;;;;;4.97;53.44;101386.22;4783335;30;20960;-91
2023/12/20 01:24:14;;;;;;;0.20;0.20;;;;;;;5.13;52.88;101391.13;4753505;30;20433;-92
2023/12/20 01:26:40;;;;;;;0.60;0.43;;;;;;;5.34;52.09;101382.53;4753431;30;20497;-91
2023/12/20 01:29:06;;;;;;;0.70;0.50;;;;;;;5.42;51.65;101381.94;4768090;30;20849;-92
2023/12/20 01:31:31;;;;;;;0.70;0.30;;;;;;;5.57;51.37;101388.63;4791740;29;20440;-91
2023/12/20 01:33:57;;;;;;;1.33;0.43;;;;;;;5.55;51.06;101378.22;4790971;29;20437;-92
2023/12/20 01:36:22;;;;;;;0.20;0.20;;;;;;;5.59;50.74;101372.72;4803049;29;20430;-92
2023/12/20 01:38:48;;;;;;;0.57;0.40;;;;;;;5.58;51.10;101371.88;4755068;30;20817;-91
2023/12/20 01:41:14;;;;;;;0.30;0.20;;;;;;;5.58;50.68;101363.16;4784666;30;20806;-91
2023/12/20 01:43:39;;;;;;;0.30;0.30;;;;;;;5.53;50.74;101358.28;4783521;30;20449;-91
2023/12/20 01:46:05;;;;;;;0.20;0.20;;;;;;;5.54;50.73;101355.50;4767947;30;20449;-91
2023/12/20 01:48:34;;;;;;;0.43;0.32;;;;;;;5.54;50.48;101354.69;4767700;30;20924;-91
2023/12/20 01:51:00;;;;;;;0.10;0.10;;;;;;;5.51;50.47;101347.88;4755146;30;20497;-91
2023/12/20 01:53:27;;;;;;;0.37;0.30;;;;;;;5.48;50.64;101348.13;4770095;30;20872;-92
2023/12/20 01:55:55;;;;;;;0.45;0.40;;;;;;;5.45;50.32;101343.09;4771177;30;20406;-92
2023/12/20 01:58:21;;;;;;;0.50;0.30;;;;;;;5.38;50.51;101341.06;4770743;30;20413;-92
2023/12/20 02:00:48;;;;;;;0.80;0.45;;;;;;;5.32;50.46;101324.00;4771014;30;20416;-92
2023/12/20 02:03:14;;;;;;;0.32;0.30;;;;;;;5.34;50.64;101327.31;4784468;30;20486;-92
2023/12/20 02:05:40;;;;;;;0.20;0.20;;;;;;;5.30;50.61;101329.34;4760241;30;20446;-91
2023/12/20 02:08:06;;;;;;;0.40;0.22;;;;;;;5.15;50.58;101333.22;4766153;30;20411;-91
2023/12/20 02:10:32;;;;;;;1.20;0.50;;;;;;;5.06;50.94;101321.63;4754274;30;20454;-92
2023/12/20 02:12:58;;;;;;;0.40;0.40;;;;;;;4.99;50.79;101323.03;4753756;30;20447;-92
2023/12/20 02:15:24;;;;;;;3.40;0.70;;;;;;;4.85;51.52;101316.22;4753290;30;20419;-89
2023/12/20 02:17:50;;;;;;;0.57;0.57;;;;;;;4.92;51.32;101320.03;4753056;30;20420;-91
2023/12/20 02:20:16;;;;;;;1.90;0.45;;;;;;;4.98;50.81;101305.59;4753459;30;20426;-94
2023/12/20 02:22:41;;;;;;;2.17;1.30;;;;;;;5.02;50.59;101303.56;4772961;30;20517;-92
2023/12/20 02:25:07;;;;;;;0.40;0.40;;;;;;;5.05;50.78;101300.69;4769013;30;20465;-91
2023/12/20 02:27:33;;;;;;;0.40;0.40;;;;;;;5.03;50.35;101302.63;4775101;30;20439;-91
2023/12/20 02:29:59;;;;;;;0.45;0.45;;;;;;;4.95;50.77;101297.94;4753858;30;20414;-91
2023/12/20 02:32:28;;;;;;;0.30;0.30;;;;;;;4.91;50.79;101305.22;4739358;30;20484;-92
2023/12/20 02:34:55;;;;;;;0.30;0.30;;;;;;;4.89;50.94;101295.78;4759965;30;20588;-92
2023/12/20 02:37:20;;;;;;;0.80;0.80;;;;;;;4.91;51.00;101299.97;4745458;30;20419;-90
2023/12/20 02:39:46;;;;;;;0.30;0.30;;;;;;;4.90;50.61;101282.56;4767200;30;20415;-91
2023/12/20 02:42:13;;;;;;;0.30;0.30;;;;;;;4.88;50.32;101283.59;4755359;30;20845;-91
2023/12/20 02:44:39;;;;;;;0.93;0.75;;;;;;;4.72;51.23;101291.84;4774215;30;20496;-89
2023/12/20 02:47:04;;;;;;;0.40;0.40;;;;;;;4.73;51.02;101289.09;4755794;30;20424;-90
2023/12/20 02:49:30;;;;;;;0.60;0.60;;;;;;;4.68;51.05;101296.50;4752800;30;20416;-90
2023/12/20 02:51:56;;;;;;;0.68;0.65;;;;;;;4.62;51.60;101277.75;4752299;30;20408;-90
2023/12/20 02:54:21;;;;;;;0.53;0.53;;;;;;;4.47;52.16;101280.59;4753168;30;20533;-90
2023/12/20 02:56:47;;;;;;;0.70;0.70;;;;;;;4.36;52.52;101273.53;4753311;30;20784;-90
2023/12/20 02:59:13;;;;;;;0.20;0.20;;;;;;;4.34;52.80;101267.56;4737761;30;20507;-91
2023/12/20 03:01:45;;;;;;;0.52;0.38;;;;;;;4.47;52.66;101269.25;4752312;30;20438;-91
2023/12/20 03:04:12;;;;;;;0.70;0.30;;;;;;;4.55;52.18;101267.69;4754766;30;20571;-91
2023/12/20 03:06:38;;;;;;;0.60;0.47;;;;;;;4.69;51.91;101269.28;4754045;30;20506;-91
2023/12/20 03:09:04;;;;;;;0.37;0.30;;;;;;;4.69;51.84;101255.31;4756248;30;20442;-94
2023/12/20 03:11:30;;;;;;;0.83;0.47;;;;;;;4.79;51.61;101256.28;4756127;30;20410;-92
2023/12/20 03:13:56;;;;;;;0.50;0.30;;;;;;;4.87;51.09;101259.13;4755629;30;20422;-93
2023/12/20 03:16:22;;;;;;;1.85;1.67;;;;;;;4.78;51.20;101244.09;4756347;30;20475;-92
2023/12/20 03:18:47;;;;;;;0.20;0.20;;;;;;;4.91;51.31;101255.31;4755967;30;20481;-93
2023/12/20 03:21:13;;;;;;;0.20;0.20;;;;;;;4.90;50.73;101247.56;4755610;30;20406;-91
2023/12/20 03:23:39;;;;;;;0.30;0.27;;;;;;;4.97;51.11;101262.72;4755171;30;20422;-91
2023/12/20 03:26:08;;;;;;;0.30;0.20;;;;;;;4.97;50.78;101257.47;4755392;30;20421;-92
2023/12/20 03:28:34;;;;;;;0.20;0.20;;;;;;;4.91;50.77;101260.56;4769682;30;20425;-90
2023/12/20 03:31:00;;;;;;;0.40;0.30;;;;;;;4.90;51.04;101258.91;4755005;30;20410;-92
2023/12/20 03:33:25;;;;;;;0.40;0.40;;;;;;;4.85;51.20;101245.28;4769047;30;20452;-91
2023/12/20 03:35:51;;;;;;;0.30;0.30;;;;;;;4.83;51.09;101234.06;4768849;30;20413;-92
2023/12/20 03:38:17;;;;;;;0.30;0.25;;;;;;;4.86;51.01;101235.59;4753767;30;20414;-91
2023/12/20 03:40:42;;;;;;;0.28;0.28;;;;;;;4.91;50.93;101239.53;4754112;30;20446;-92
2023/12/20 03:43:08;;;;;;;0.70;0.52;;;;;;;4.86;51.00;101240.84;4768757;30;20430;-92
2023/12/20 03:45:34;;;;;;;0.43;0.35;;;;;;;4.84;51.05;101222.59;4754016;30;20442;-92
2023/12/20 03:47:59;;;;;;;0.60;0.50;;;;;;;4.86;51.03;101223.34;4754335;30;20501;-92
2023/12/20 03:50:26;;;;;;;1.10;0.63;;;;;;;4.90;50.95;101218.69;4755279;30;20418;-95
2023/12/20 03:52:52;;;;;;;1.00;0.38;;;;;;;4.93;50.71;101223.66;4740633;30;20959;-94
2023/12/20 03:55:18;;;;;;;0.35;0.25;;;;;;;4.95;50.55;101217.34;4754691;30;20414;-94
2023/12/20 03:57:47;;;;;;;0.35;0.25;;;;;;;4.97;50.48;101214.59;4755582;30;20475;-95
2023/12/20 04:00:13;;;;;;;0.38;0.20;;;;;;;5.04;50.29;101228.94;4756043;30;20473;-92
2023/12/20 04:02:40;;;;;;;0.60;0.60;;;;;;;4.99;50.31;101215.31;4770438;30;20460;-93
2023/12/20 04:05:07;;;;;;;0.23;0.20;;;;;;;5.05;50.09;101221.88;4754371;30;20537;-93
2023/12/20 04:07:32;;;;;;;0.20;0.20;;;;;;;5.03;50.59;101219.38;4757928;30;20414;-93
2023/12/20 04:09:59;;;;;;;0.60;0.60;;;;;;;5.00;50.28;101208.25;4769929;30;20454;-92
2023/12/20 04:12:24;;;;;;;0.30;0.30;;;;;;;4.95;50.06;101213.88;4775134;29;20449;-92
2023/12/20 04:14:50;;;;;;;0.50;0.50;;;;;;;4.80;50.25;101210.66;4784295;30;20429;-92
2023/12/20 04:17:16;;;;;;;0.35;0.32;;;;;;;4.67;50.93;101215.22;4759056;30;20918;-93
2023/12/20 04:19:45;;;;;;;0.30;0.30;;;;;;;4.47;51.34;101211.50;4758675;30;20413;-91
2023/12/20 04:22:11;;;;;;;0.60;0.50;;;;;;;4.37;51.58;101221.84;4758688;30;20468;-92
2023/12/20 04:24:37;;;;;;;0.30;0.30;;;;;;;4.35;51.86;101206.22;4758562;30;21006;-92
2023/12/20 04:27:03;;;;;;;0.30;0.30;;;;;;;4.47;51.64;101209.72;4759084;30;20418;-91
2023/12/20 04:29:28;;;;;;;0.35;0.35;;;;;;;4.51;51.20;101197.19;4762785;30;20478;-93
2023/12/20 04:31:55;;;;;;;0.40;0.40;;;;;;;4.52;51.48;101202.31;4803426;29;20414;-94
2023/12/20 04:34:29;;;;;;;1.65;0.65;;;;;;;4.47;51.31;101201.00;4790638;29;20497;-95
2023/12/20 04:37:01;;;;;;;0.80;0.80;;;;;;;4.54;50.99;101207.44;4769094;30;20409;-95
2023/12/20 04:39:30;;;;;;;0.40;0.40;;;;;;;4.64;51.18;101215.44;4766919;30;20420;-95
2023/12/20 04:41:59;;;;;;;1.10;0.68;;;;;;;4.56;50.65;101202.91;4784357;30;20452;-95
2023/12/20 04:44:27;;;;;;;1.15;0.75;;;;;;;4.52;51.00;101199.69;4786424;30;20467;-94
2023/12/20 04:46:56;;;;;;;0.30;0.30;;;;;;;4.48;51.44;101197.41;4782016;30;20747;-95
2023/12/20 04:49:22;;;;;;;0.85;0.60;;;;;;;4.51;51.28;101195.38;4780635;30;20475;-94
2023/12/20 04:52:14;;;;;;;0.45;0.40;;;;;;;4.65;50.96;101202.19;4742981;30;20406;-94
2023/12/20 04:55:00;;;;;;;1.38;0.82;;;;;;;4.64;50.88;101200.50;4755450;30;20475;-95
2023/12/20 04:57:32;;;;;;;0.30;0.30;;;;;;;4.57;50.92;101186.19;4727624;30;20405;-95
2023/12/20 04:59:59;;;;;;;0.63;0.50;;;;;;;4.64;51.35;101191.81;4733163;30;20434;-94
2023/12/20 05:02:25;;;;;;;0.95;0.85;;;;;;;4.63;51.02;101185.72;4714649;30;20422;-95
2023/12/20 05:04:51;;;;;;;0.35;0.35;;;;;;;4.69;50.74;101189.66;4713571;30;20453;-92
2023/12/20 05:07:17;;;;;;;0.73;0.43;;;;;;;4.62;50.94;101193.72;4743479;30;20475;-93
2023/12/20 05:09:44;;;;;;;0.52;0.40;;;;;;;4.63;51.07;101201.47;4735112;30;21031;-92
2023/12/20 05:12:09;;;;;;;0.68;0.30;;;;;;;4.62;50.93;101201.59;4747429;30;20414;-92
2023/12/20 05:14:35;;;;;;;1.45;0.85;;;;;;;4.56;51.05;101188.00;4752207;30;20478;-93
2023/12/20 05:17:03;;;;;;;0.70;0.70;;;;;;;4.51;51.41;101186.69;4752518;30;20418;-94
2023/12/20 05:19:31;;;;;;;0.40;0.40;;;;;;;4.40;51.52;101183.09;4751101;30;20405;-93
2023/12/20 05:21:56;;;;;;;0.55;0.50;;;;;;;4.39;51.86;101177.94;4740590;30;20450;-94
2023/12/20 05:24:22;;;;;;;0.30;0.30;;;;;;;4.30;51.69;101171.63;4770704;30;20464;-92
2023/12/20 05:26:47;;;;;;;0.60;0.60;;;;;;;4.31;51.75;101169.84;4766882;30;20421;-95
2023/12/20 05:29:13;;;;;;;0.65;0.60;;;;;;;4.15;52.48;101165.75;4765960;30;20417;-94
2023/12/20 05:31:40;;;;;;;0.75;0.43;;;;;;;4.08;52.60;101168.97;4760263;30;20418;-93
2023/12/20 05:34:06;;;;;;;2.35;2.25;;;;;;;3.92;53.34;101167.50;4773802;30;20410;-91
2023/12/20 05:36:32;;;;;;;1.47;1.30;;;;;;;3.81;53.61;101167.47;4755434;30;20440;-93
2023/12/20 05:39:00;;;;;;;1.30;1.03;;;;;;;3.75;54.09;101158.28;4759370;30;20414;-95
2023/12/20 05:41:26;;;;;;;1.08;0.82;;;;;;;3.73;54.25;101165.44;4771075;30;20413;-89
2023/12/20 05:43:51;;;;;;;2.72;2.03;;;;;;;3.95;53.86;101164.66;4753282;30;20486;-88
2023/12/20 05:46:17;;;;;;;1.08;1.08;;;;;;;4.11;53.26;101159.09;4755698;30;20456;-90
2023/12/20 05:48:43;;;;;;;1.10;1.00;;;;;;;3.92;53.32;101146.50;4770156;30;20902;-92
2023/12/20 05:51:12;;;;;;;0.40;0.40;;;;;;;3.96;53.54;101147.97;4759015;30;20410;-90
2023/12/20 05:53:38;;;;;;;0.60;0.60;;;;;;;4.09;53.29;101142.63;4777157;30;20421;-94
2023/12/20 05:56:07;;;;;;;0.75;0.75;;;;;;;4.18;53.20;101143.72;4764018;30;20449;-94
2023/12/20 05:58:35;;;;;;;0.63;0.57;;;;;;;4.24;52.75;101156.34;4766932;30;20428;-92
2023/12/20 06:01:35;;;;;;;2.13;0.93;;;;;;;4.23;52.88;101133.69;4756098;29;20444;-93
2023/12/20 06:10:58;;;;;;;1.95;1.08;;;;;;;4.40;52.85;101138.47;1036514;24;22088;31
2023/12/20 06:13:24;;;;;;;1.00;1.00;;;;;;;4.44;52.57;101135.59;4736229;30;20497;-92
2023/12/20 06:15:51;;;;;;;0.52;0.50;;;;;;;4.43;52.73;101124.28;4745246;30;20442;-91
2023/12/20 06:18:16;;;;;;;1.80;1.10;;;;;;;4.45;52.39;101132.88;4753669;29;20444;-90
2023/12/20 06:20:42;;;;;;;0.20;0.20;;;;;;;4.53;52.63;101134.88;4762956;30;20429;-90
2023/12/20 06:23:14;;;;;;;0.40;0.40;;;;;;;4.54;52.90;101139.19;4755206;30;20430;-93
2023/12/20 06:28:14;;;;;;;0.55;0.47;;;;;;;4.59;53.09;101134.38;4794432;29;20463;-93
2023/12/20 06:30:43;;;;;;;3.08;1.60;;;;;;;4.51;53.52;101134.16;4952380;24;20451;-93
2023/12/20 06:33:11;;;;;;;1.48;1.20;;;;;;;4.55;53.29;101130.34;4777368;29;20451;-91
2023/12/20 06:35:37;;;;;;;0.40;0.40;;;;;;;4.60;53.03;101142.16;4808202;29;20414;-89
2023/12/20 06:38:03;;;;;;;0.90;0.90;;;;;;;4.59;53.12;101135.25;4826419;29;20410;-89
2023/12/20 06:40:29;;;;;;;1.33;1.23;;;;;;;4.62;53.19;101142.03;4796335;30;20796;-92
2023/12/20 06:43:00;;;;;;;1.10;1.00;;;;;;;4.66;53.59;101142.63;4799355;29;20491;-89
2023/12/20 06:45:26;;;;;;;1.33;1.10;;;;;;;4.73;53.52;101138.56;4803108;29;20434;-91
2023/12/20 06:47:52;;;;;;;0.20;0.20;;;;;;;4.84;52.94;101137.72;4780486;30;20420;-89
2023/12/20 06:50:17;;;;;;;0.77;0.77;;;;;;;4.89;52.74;101139.00;4796576;30;20396;-91
2023/12/20 06:52:43;;;;;;;1.58;1.50;;;;;;;4.91;52.89;101138.88;4794439;30;20835;-91
2023/12/20 06:55:09;;;;;;;0.45;0.45;;;;;;;4.80;53.09;101129.25;4794232;30;20401;-91
2023/12/20 06:57:36;;;;;;;0.50;0.45;;;;;;;4.66;53.59;101132.94;4777217;30;20544;-88
2023/12/20 07:00:03;;;;;;;0.60;0.60;;;;;;;4.62;53.53;101133.34;4793241;30;20404;-89
2023/12/20 07:02:30;;;;;;;1.20;1.10;;;;;;;4.71;53.71;101129.97;4789669;30;20499;-89
2023/12/20 07:05:06;;;;;;;;;;;;;;;;;;;;;
2023/12/20 07:07:32;;;;;;;0.60;0.60;;;;;;;4.73;53.70;101128.88;4791749;30;20492;-90
2023/12/20 07:09:58;;;;;;;0.57;0.57;;;;;;;4.59;53.86;101122.13;4793085;30;20508;-91
2023/12/20 07:12:24;;;;;;;0.93;0.57;;;;;;;4.67;53.87;101120.69;4793342;30;20444;-89
2023/12/20 07:14:49;;;;;;;0.53;0.53;;;;;;;4.79;53.69;101117.91;4791704;30;20452;-87
2023/12/20 07:17:15;;;;;;;0.87;0.87;;;;;;;4.82;53.59;101113.38;4788113;30;20928;-85
2023/12/20 07:19:42;;;;;;;0.60;0.60;;;;;;;4.85;54.00;101102.63;4771312;30;21037;-87
2023/12/20 07:22:08;;;;;;;0.90;0.80;;;;;;;5.04;53.30;101105.44;4791004;29;20417;-87
2023/12/20 07:24:34;;;;;;;0.30;0.20;;;;;;;5.04;53.22;101096.69;4804444;29;20424;-88
2023/12/20 07:27:00;;;;;;;0.20;0.20;;;;;;;4.84;54.05;101093.06;4791828;29;20565;-88
2023/12/20 07:29:26;;;;;;;0.55;0.55;;;;;;;4.84;54.57;101109.66;4792023;30;20428;-89
2023/12/20 07:31:53;;;;;;;0.35;0.35;;;;;;;4.87;54.66;101101.53;4804974;29;20435;-88
2023/12/20 07:34:22;;;;;;;0.30;0.30;;;;;;;5.06;54.24;101106.16;4791556;30;20501;-89
2023/12/20 07:36:49;;;;;;;0.83;0.70;;;;;;;5.33;54.28;101099.56;4789752;29;20921;-90
2023/12/20 07:39:18;;;;;;;0.30;0.30;;;;;;;5.48;53.35;101090.44;4788356;30;20766;-87
2023/12/20 07:41:44;;;;;;;1.50;0.80;;;;;;;5.69;53.37;101095.69;4805890;29;20395;-89
2023/12/20 07:44:10;;;;;;;0.22;0.22;;;;;;;5.70;53.13;101086.00;4795994;29;20476;-91
2023/12/20 07:46:38;;;;;;;0.40;0.40;;;;;;;5.78;53.04;101088.84;4805087;29;20405;-91
2023/12/20 07:49:05;;;;;;;0.40;0.40;;;;;;;5.86;52.96;101088.19;4807059;29;20411;-88
2023/12/20 07:51:31;;;;;;;1.60;1.50;;;;;;;5.96;53.21;101083.84;4806164;29;20413;-89
2023/12/20 07:54:04;;;;;;;0.60;0.40;;;;;;;6.10;52.75;101080.88;4800561;29;20464;-91
2023/12/20 07:56:30;;;;;;;0.10;0.10;;;;;;;6.14;52.86;101073.53;4808615;29;20456;-89
2023/12/20 07:58:56;;;;;;;0.60;0.60;;;;;;;6.12;52.98;101075.44;4791545;29;20454;-89
2023/12/20 08:01:21;;;;;;;0.10;0.10;;;;;;;6.18;53.05;101076.75;4792695;29;20424;-88
2023/12/20 08:03:49;;;;;;;0.20;0.20;;;;;;;6.25;52.90;101072.59;4804620;29;20431;-88
2023/12/20 08:06:17;;;;;;;1.80;1.70;;;;;;;6.40;52.87;101084.44;4803738;29;20417;-85
2023/12/20 08:08:42;;;;;;;0.50;0.50;;;;;;;6.58;52.80;101079.34;4788423;29;20967;-89
2023/12/20 08:11:11;;;;;;;0.80;0.80;;;;;;;6.75;52.17;101072.56;4791876;29;20581;-93
2023/12/20 08:13:37;;;;;;;0.30;0.30;;;;;;;6.87;52.38;101079.41;4797806;29;20449;-88
2023/12/20 08:16:04;;;;;;;0.65;0.65;;;;;;;6.92;52.13;101073.72;4805980;29;20497;-86
2023/12/20 08:18:30;;;;;;;0.53;0.53;;;;;;;6.99;52.15;101068.75;4805820;29;20409;-88
2023/12/20 08:20:58;;;;;;;0.50;0.50;;;;;;;7.02;52.27;101068.44;4793598;29;20423;-89
2023/12/20 08:23:24;;;;;;;0.30;0.30;;;;;;;7.04;52.24;101061.22;4808368;29;20416;-87
2023/12/20 08:25:49;;;;;;;1.10;1.00;;;;;;;7.06;52.32;101038.22;4799155;29;20446;-87
2023/12/20 08:28:15;;;;;;;0.60;0.60;;;;;;;7.16;52.24;101033.75;4796777;29;20415;-85
2023/12/20 08:30:41;;;;;;;0.30;0.30;;;;;;;7.31;52.23;101028.06;4787138;29;20430;-86
2023/12/20 08:33:13;;;;;;;0.30;0.30;;;;;;;7.44;51.89;101026.81;4805473;29;20819;-88
2023/12/20 08:35:42;;;;;;;0.50;0.50;;;;;;;7.54;51.87;101025.94;4803319;29;20420;-85
2023/12/20 08:38:07;;;;;;;0.43;0.43;;;;;;;7.56;51.70;101030.13;4806397;29;20410;-85
2023/12/20 08:40:33;;;;;;;2.03;1.30;;;;;;;7.56;52.08;101016.94;4789471;29;20410;-85
2023/12/20 08:43:00;;;;;;;0.32;0.32;;;;;;;7.59;51.54;101018.44;4806475;29;20424;-86
2023/12/20 08:45:25;;;;;;;0.35;0.35;;;;;;;7.64;52.16;101013.56;4807238;29;20462;-86
2023/12/20 08:47:53;;;;;;;0.28;0.28;;;;;;;7.67;51.62;101008.00;4791290;29;21891;-84
2023/12/20 08:50:19;;;;;;;0.70;0.70;;;;;;;7.73;51.61;101006.59;4786368;29;20431;-86
2023/12/20 08:52:45;;;;;;;0.68;0.68;;;;;;;7.69;51.78;101003.41;4787474;29;20427;-85
2023/12/20 08:55:10;;;;;;;0.40;0.40;;;;;;;7.72;52.17;100994.38;4804959;29;20416;-86
2023/12/20 08:57:36;;;;;;;1.05;0.90;;;;;;;7.82;52.02;100997.81;4786716;29;20511;-86
2023/12/20 09:00:03;;;;;;;1.60;1.10;;;;;;;7.85;51.76;100994.91;4805685;29;20934;-85
2023/12/20 09:02:29;;;;;;;1.15;1.15;;;;;;;7.78;51.98;100999.91;4802491;29;20409;-87
2023/12/20 09:04:55;;;;;;;0.87;0.87;;;;;;;7.71;52.04;100990.09;4789986;29;20431;-85
2023/12/20 09:07:25;;;;;;;0.50;0.50;;;;;;;7.80;51.70;100997.13;4806876;29;20406;-87
2023/12/20 09:09:51;;;;;;;1.40;1.30;;;;;;;7.78;52.02;100991.19;4803055;29;20450;-84
2023/12/20 09:12:20;;;;;;;0.70;0.70;;;;;;;7.73;52.02;100977.56;4801632;29;20843;-85
2023/12/20 09:14:47;;;;;;;0.60;0.60;;;;;;;7.76;52.04;100983.41;4786457;29;20769;-84
2023/12/20 09:17:13;;;;;;;0.60;0.60;;;;;;;7.72;51.91;100968.00;4802157;29;20408;-85
2023/12/20 09:19:39;;;;;;;0.70;0.65;;;;;;;7.68;52.30;100959.53;4787470;30;20419;-86
2023/12/20 09:22:05;;;;;;;1.70;1.60;;;;;;;7.74;52.26;100952.84;4805932;29;20910;-85
2023/12/20 09:24:31;;;;;;;0.60;0.60;;;;;;;7.82;52.18;100945.84;4804712;29;20517;-85
2023/12/20 09:27:02;;;;;;;0.52;0.52;;;;;;;7.92;52.21;100945.78;4787449;29;20489;-85
2023/12/20 09:29:29;;;;;;;3.30;1.77;;;;;;;7.93;52.28;100939.56;4786337;30;20992;-86
2023/12/20 09:31:58;;;;;;;0.85;0.85;;;;;;;7.99;52.32;100943.41;4787022;29;20489;-85
2023/12/20 09:34:25;;;;;;;0.98;0.98;;;;;;;7.98;52.52;100929.38;4786352;29;20432;-88
2023/12/20 09:36:52;;;;;;;0.67;0.67;;;;;;;8.00;52.67;100929.25;4788009;29;20417;-87
2023/12/20 09:39:22;;;;;;;1.13;1.10;;;;;;;8.13;52.66;100928.88;4801342;29;20416;-87
2023/12/20 09:42:06;;;;;;;1.55;1.45;;;;;;;8.22;52.38;100930.63;4789201;29;20417;-87
2023/12/20 09:44:34;;;;;;;0.77;0.77;;;;;;;8.28;52.23;100922.09;4790406;29;20805;-87
2023/12/20 09:47:03;;;;;;;0.40;0.40;;;;;;;8.34;52.59;100928.63;4808243;29;20408;-88
2023/12/20 09:49:30;;;;;;;2.80;1.60;;;;;;;8.40;52.23;100912.16;4791038;30;20412;-86
2023/12/20 09:51:56;;;;;;;0.65;0.65;;;;;;;8.53;52.61;100914.44;4793445;29;20400;-88
2023/12/20 09:54:23;;;;;;;0.40;0.40;;;;;;;8.64;52.07;100903.63;4792435;30;20415;-88
2023/12/20 09:56:49;;;;;;;2.08;1.65;;;;;;;8.70;52.13;100896.94;4793757;29;20409;-88
2023/12/20 09:59:17;;;;;;;1.40;1.30;;;;;;;8.75;52.03;100897.28;4811334;29;20405;-89
2023/12/20 10:01:44;;;;;;;0.93;0.90;;;;;;;8.84;51.69;100891.09;4805163;29;20412;-87
2023/12/20 10:04:14;;;;;;;0.60;0.60;;;;;;;8.89;51.72;100887.97;4787610;29;20864;-88
2023/12/20 10:06:44;;;;;;;1.85;1.75;;;;;;;8.85;52.19;100876.06;4788839;29;20440;-88
2023/12/20 10:09:11;;;;;;;0.85;0.85;;;;;;;8.89;52.16;100872.09;4798346;29;20930;-86
2023/12/20 10:11:38;;;;;;;1.45;1.20;;;;;;;8.95;51.73;100869.69;4795584;29;20410;-86
2023/12/20 10:14:04;;;;;;;1.00;1.00;;;;;;;9.01;51.91;100865.59;4797797;29;20410;-88
2023/12/20 10:16:30;;;;;;;0.77;0.77;;;;;;;9.08;51.71;100857.88;4806706;29;20446;-88
2023/12/20 10:18:56;;;;;;;1.38;1.27;;;;;;;9.12;51.96;100875.88;4794857;29;20454;-88
2023/12/20 10:21:24;;;;;;;0.85;0.85;;;;;;;9.20;51.15;100856.63;4794030;30;20461;-87
2023/12/20 10:23:50;;;;;;;0.90;0.90;;;;;;;9.30;51.07;100861.78;4809295;29;20428;-88
2023/12/20 10:26:24;;;;;;;0.43;0.43;;;;;;;9.32;51.51;100852.69;4807005;29;20420;-87
2023/12/20 10:28:59;;;;;;;0.40;0.30;;;;;;;9.34;50.67;100842.75;4795278;29;20408;-87
2023/12/20 10:31:35;;;;;;;1.70;1.60;;;;;;;9.35;50.95;100839.16;4805147;29;20444;-87
2023/12/20 10:34:02;;;;;;;0.60;0.60;;;;;;;9.52;50.56;100834.72;4793395;29;20430;-85
2023/12/20 10:36:33;;;;;;;0.50;0.50;;;;;;;9.47;50.24;100826.47;4810483;29;20554;-89
2023/12/20 10:38:59;;;;;;;1.00;0.95;;;;;;;9.61;50.13;100830.31;4794333;29;20447;-86
2023/12/20 10:41:33;;;;;;;0.55;0.50;;;;;;;9.75;50.12;100827.03;4788332;30;20451;-85
2023/12/20 10:44:04;;;;;;;2.00;1.58;;;;;;;9.69;49.98;100814.47;4808336;29;20428;-92
2023/12/20 10:46:32;;;;;;;0.85;0.75;;;;;;;9.75;50.25;100823.56;4793964;29;20449;-87
2023/12/20 10:48:58;;;;;;;0.70;0.68;;;;;;;9.78;50.45;100823.25;4774283;30;20489;-86
2023/12/20 10:51:29;;;;;;;1.48;1.38;;;;;;;9.72;49.97;100806.19;4747435;30;20536;-88
2023/12/20 10:53:56;;;;;;;2.33;0.90;;;;;;;9.74;50.43;100796.28;4774344;30;20428;-89
2023/12/20 10:56:25;;;;;;;0.80;0.80;;;;;;;9.75;50.13;100787.31;4772247;30;20417;-89
2023/12/20 10:58:52;;;;;;;0.80;0.80;;;;;;;9.87;50.01;100781.75;4769664;30;20468;-87
2023/12/20 11:01:20;;;;;;;1.65;1.55;;;;;;;9.83;49.94;100783.03;4762444;30;20406;-88
2023/12/20 11:04:09;;;;;;;0.80;0.80;;;;;;;9.75;50.20;100787.31;4776356;30;20438;-89
2023/12/20 11:06:56;;;;;;;1.23;1.15;;;;;;;9.84;50.13;100787.34;4778474;30;20410;-87
2023/12/20 11:09:43;;;;;;;1.00;1.00;;;;;;;9.79;49.81;100787.00;4776531;30;20413;-87
2023/12/20 11:12:32;;;;;;;2.50;0.90;;;;;;;9.80;49.75;100775.44;4769423;30;20437;-88
2023/12/20 11:15:03;;;;;;;1.17;1.00;;;;;;;9.89;49.51;100774.44;4770722;30;20485;-88
2023/12/20 11:17:32;;;;;;;0.47;0.47;;;;;;;9.92;49.24;100780.25;4773391;30;20446;-88
2023/12/20 11:19:58;;;;;;;0.63;0.63;;;;;;;9.96;49.35;100778.09;4773400;30;20461;-89
2023/12/20 11:22:29;;;;;;;0.85;0.85;;;;;;;9.92;48.93;100768.81;4767268;30;20414;-89
2023/12/20 11:25:18;;;;;;;0.73;0.73;;;;;;;9.88;48.99;100756.91;4758524;30;20441;-88
2023/12/20 11:28:05;;;;;;;1.30;1.20;;;;;;;9.94;48.77;100753.63;4812141;29;20415;-86
2023/12/20 11:30:42;;;;;;;1.53;1.33;;;;;;;10.01;49.28;100749.31;4793558;30;20408;-88
2023/12/20 11:33:09;;;;;;;2.35;1.55;;;;;;;10.02;48.84;100747.47;4806351;29;20423;-88
2023/12/20 11:35:36;;;;;;;3.50;1.70;;;;;;;10.13;48.83;100752.44;4797488;29;20475;-89
2023/12/20 11:38:02;;;;;;;0.55;0.55;;;;;;;10.24;49.18;100738.03;4810696;29;20404;-88
2023/12/20 11:40:28;;;;;;;1.10;1.10;;;;;;;10.21;48.78;100720.66;4806727;29;20424;-88
2023/12/20 11:42:58;;;;;;;1.38;1.27;;;;;;;10.20;48.90;100726.13;4807418;29;20416;-92
2023/12/20 11:45:25;;;;;;;0.50;0.40;;;;;;;10.17;48.77;100721.97;4805115;29;20441;-92